createdAt,value
2023-04-11T00:00:17.910Z,0.00
2023-04-11T00:01:17.888Z,0.00
2023-04-11T00:02:17.921Z,0.00
2023-04-11T00:03:17.999Z,0.00
2023-04-11T00:04:18.007Z,0.00
2023-04-11T00:05:17.843Z,0.00
2023-04-11T00:06:17.832Z,0.00
2023-04-11T00:07:17.819Z,0.00
2023-04-11T00:08:17.804Z,0.00
2023-04-11T00:09:17.840Z,0.00
2023-04-11T00:10:17.783Z,0.00
2023-04-11T00:11:17.779Z,0.00
2023-04-11T00:12:17.757Z,0.00
2023-04-11T00:13:17.765Z,0.00
2023-04-11T00:14:17.763Z,0.00
2023-04-11T00:15:17.766Z,0.00
2023-04-11T00:16:17.823Z,0.00
2023-04-11T00:17:17.752Z,0.00
2023-04-11T00:18:17.699Z,0.00
2023-04-11T00:19:17.694Z,0.00
2023-04-11T00:20:17.684Z,0.00
2023-04-11T00:21:17.692Z,0.00
2023-04-11T00:22:17.659Z,0.00
2023-04-11T00:23:17.652Z,0.00
2023-04-11T00:24:17.633Z,0.00
2023-04-11T00:25:17.632Z,0.00
2023-04-11T00:26:17.635Z,0.00
2023-04-11T00:27:18.244Z,0.00
2023-04-11T00:28:17.596Z,0.00
2023-04-11T00:29:17.582Z,0.00
2023-04-11T00:30:17.596Z,0.00
2023-04-11T00:31:17.636Z,0.00
2023-04-11T00:32:17.568Z,0.00
2023-04-11T00:33:17.543Z,0.00
2023-04-11T00:34:17.529Z,0.00
2023-04-11T00:35:17.537Z,0.00
2023-04-11T00:36:17.626Z,0.00
2023-04-11T00:37:17.499Z,0.00
2023-04-11T00:38:17.607Z,0.00
2023-04-11T00:39:17.474Z,0.00
2023-04-11T00:40:17.496Z,0.00
2023-04-11T00:41:17.457Z,0.00
2023-04-11T00:42:17.442Z,0.00
2023-04-11T00:43:17.450Z,0.00
2023-04-11T00:44:17.433Z,0.00
2023-04-11T00:45:17.413Z,0.00
2023-04-11T00:46:17.488Z,0.00
2023-04-11T00:47:17.412Z,0.00
2023-04-11T00:48:17.389Z,0.00
2023-04-11T00:49:17.366Z,0.00
2023-04-11T00:50:17.382Z,0.00
2023-04-11T00:51:17.353Z,0.00
2023-04-11T00:52:17.342Z,0.00
2023-04-11T00:53:17.322Z,0.00
2023-04-11T00:54:17.323Z,0.00
2023-04-11T00:55:17.341Z,0.00
2023-04-11T00:56:17.298Z,0.00
2023-04-11T00:57:17.290Z,0.00
2023-04-11T00:58:17.289Z,0.00
2023-04-11T00:59:17.264Z,0.00
2023-04-11T01:00:17.273Z,0.00
2023-04-11T01:01:17.371Z,0.00
2023-04-11T01:02:17.275Z,0.00
2023-04-11T01:03:17.321Z,0.00
2023-04-11T01:04:17.240Z,0.00
2023-04-11T01:05:17.200Z,0.00
2023-04-11T01:06:17.192Z,0.00
2023-04-11T01:07:17.177Z,0.00
2023-04-11T01:08:17.163Z,0.00
2023-04-11T01:09:17.166Z,0.00
2023-04-11T01:10:17.145Z,0.00
2023-04-11T01:11:17.133Z,0.00
2023-04-11T01:12:17.148Z,0.00
2023-04-11T01:13:17.112Z,0.00
2023-04-11T01:14:17.107Z,0.00
2023-04-11T01:15:17.096Z,0.00
2023-04-11T01:16:17.117Z,0.00
2023-04-11T01:17:17.085Z,0.00
2023-04-11T01:18:17.071Z,0.00
2023-04-11T01:19:17.160Z,0.00
2023-04-11T01:20:17.048Z,0.00
2023-04-11T01:21:17.029Z,0.00
2023-04-11T01:22:17.018Z,0.00
2023-04-11T01:23:17.011Z,0.00
2023-04-11T01:24:17.006Z,0.00
2023-04-11T01:25:17.002Z,0.00
2023-04-11T01:26:16.978Z,0.00
2023-04-11T01:27:16.965Z,0.00
2023-04-11T01:28:16.961Z,0.00
2023-04-11T01:29:16.950Z,0.00
2023-04-11T01:30:16.970Z,0.00
2023-04-11T01:31:16.962Z,0.00
2023-04-11T01:32:16.934Z,0.00
2023-04-11T01:33:16.909Z,0.00
2023-04-11T01:34:16.909Z,0.00
2023-04-11T01:35:16.901Z,0.00
2023-04-11T01:36:16.881Z,0.00
2023-04-11T01:37:16.860Z,0.00
2023-04-11T01:38:16.863Z,0.00
2023-04-11T01:39:16.858Z,0.00
2023-04-11T01:40:16.838Z,0.00
2023-04-11T01:41:16.860Z,0.00
2023-04-11T01:42:16.815Z,0.00
2023-04-11T01:43:16.796Z,0.00
2023-04-11T01:44:16.827Z,0.00
2023-04-11T01:45:16.774Z,0.00
2023-04-11T01:46:16.773Z,0.00
2023-04-11T01:47:16.767Z,0.00
2023-04-11T01:48:16.845Z,0.00
2023-04-11T01:49:16.748Z,0.00
2023-04-11T01:50:16.729Z,0.00
2023-04-11T01:51:16.713Z,0.00
2023-04-11T01:52:16.724Z,0.00
2023-04-11T01:53:16.702Z,0.00
2023-04-11T01:54:16.682Z,0.00
2023-04-11T01:55:16.666Z,0.00
2023-04-11T01:56:16.672Z,0.00
2023-04-11T01:57:16.657Z,0.00
2023-04-11T01:58:16.670Z,0.00
2023-04-11T01:59:16.637Z,0.00
2023-04-11T02:00:16.622Z,0.00
2023-04-11T02:01:16.659Z,0.00
2023-04-11T02:02:16.989Z,0.00
2023-04-11T02:03:16.730Z,0.00
2023-04-11T02:04:16.649Z,0.00
2023-04-11T02:05:16.569Z,0.00
2023-04-11T02:06:16.554Z,0.00
2023-04-11T02:07:16.537Z,0.00
2023-04-11T02:08:16.537Z,0.00
2023-04-11T02:09:16.531Z,0.00
2023-04-11T02:10:16.512Z,0.00
2023-04-11T02:11:16.497Z,0.00
2023-04-11T02:12:16.494Z,0.00
2023-04-11T02:13:16.471Z,0.00
2023-04-11T02:14:16.470Z,0.00
2023-04-11T02:15:16.463Z,0.00
2023-04-11T02:16:16.508Z,0.00
2023-04-11T02:17:16.457Z,0.00
2023-04-11T02:18:16.425Z,0.00
2023-04-11T02:19:16.423Z,0.00
2023-04-11T02:20:16.423Z,0.00
2023-04-11T02:21:16.389Z,0.00
2023-04-11T02:22:16.385Z,0.00
2023-04-11T02:23:16.367Z,0.00
2023-04-11T02:24:16.399Z,0.00
2023-04-11T02:25:16.360Z,0.00
2023-04-11T02:26:16.366Z,0.00
2023-04-11T02:27:16.323Z,0.00
2023-04-11T02:28:16.322Z,0.00
2023-04-11T02:29:16.321Z,0.00
2023-04-11T02:30:16.305Z,0.00
2023-04-11T02:31:16.336Z,0.00
2023-04-11T02:32:16.533Z,0.00
2023-04-11T02:33:16.291Z,0.00
2023-04-11T02:34:16.257Z,0.00
2023-04-11T02:35:16.258Z,0.00
2023-04-11T02:36:16.300Z,0.00
2023-04-11T02:37:16.227Z,0.00
2023-04-11T02:38:16.222Z,0.00
2023-04-11T02:39:16.209Z,0.00
2023-04-11T02:40:16.205Z,0.00
2023-04-11T02:41:16.186Z,0.00
2023-04-11T02:42:16.186Z,0.00
2023-04-11T02:43:16.183Z,0.00
2023-04-11T02:44:16.156Z,0.00
2023-04-11T02:45:16.135Z,0.00
2023-04-11T02:46:16.147Z,0.00
2023-04-11T02:47:16.173Z,0.00
2023-04-11T02:48:16.117Z,0.00
2023-04-11T02:49:16.093Z,0.00
2023-04-11T02:50:16.088Z,0.00
2023-04-11T02:51:16.086Z,0.00
2023-04-11T02:52:16.070Z,0.00
2023-04-11T02:53:16.044Z,0.00
2023-04-11T02:54:16.056Z,0.00
2023-04-11T02:55:16.029Z,0.00
2023-04-11T02:56:16.038Z,0.00
2023-04-11T02:57:16.005Z,0.00
2023-04-11T02:58:16.014Z,0.00
2023-04-11T02:59:15.986Z,0.00
2023-04-11T03:00:15.976Z,0.00
2023-04-11T03:01:15.990Z,0.00
2023-04-11T03:02:16.038Z,0.00
2023-04-11T03:03:16.093Z,0.00
2023-04-11T03:04:15.981Z,0.00
2023-04-11T03:05:15.926Z,0.00
2023-04-11T03:06:15.911Z,0.00
2023-04-11T03:07:15.918Z,0.00
2023-04-11T03:08:16.852Z,0.00
2023-04-11T03:09:15.896Z,0.00
2023-04-11T03:10:15.879Z,0.00
2023-04-11T03:11:15.858Z,0.00
2023-04-11T03:12:15.868Z,0.00
2023-04-11T03:13:15.834Z,0.00
2023-04-11T03:14:15.828Z,0.00
2023-04-11T03:15:15.807Z,0.00
2023-04-11T03:16:15.907Z,0.00
2023-04-11T03:17:15.808Z,0.00
2023-04-11T03:18:15.790Z,0.00
2023-04-11T03:19:15.776Z,0.00
2023-04-11T03:20:15.783Z,0.00
2023-04-11T03:21:15.766Z,0.00
2023-04-11T03:22:15.743Z,0.00
2023-04-11T03:23:15.736Z,0.00
2023-04-11T03:24:15.744Z,0.00
2023-04-11T03:25:15.714Z,0.00
2023-04-11T03:26:15.711Z,0.00
2023-04-11T03:27:15.703Z,0.00
2023-04-11T03:28:15.687Z,0.00
2023-04-11T03:29:15.669Z,0.00
2023-04-11T03:30:15.664Z,0.00
2023-04-11T03:31:15.702Z,0.00
2023-04-11T03:32:15.639Z,0.00
2023-04-11T03:33:15.643Z,0.00
2023-04-11T03:34:15.621Z,0.00
2023-04-11T03:35:15.627Z,0.00
2023-04-11T03:36:15.614Z,0.00
2023-04-11T03:37:15.582Z,0.00
2023-04-11T03:38:15.596Z,0.00
2023-04-11T03:39:15.558Z,0.00
2023-04-11T03:40:15.564Z,0.00
2023-04-11T03:41:15.537Z,0.00
2023-04-11T03:42:15.548Z,0.00
2023-04-11T03:43:15.532Z,0.00
2023-04-11T03:44:15.625Z,0.00
2023-04-11T03:45:15.527Z,0.00
2023-04-11T03:46:15.549Z,0.00
2023-04-11T03:47:15.474Z,0.00
2023-04-11T03:48:15.481Z,0.00
2023-04-11T03:49:15.466Z,0.00
2023-04-11T03:50:15.456Z,0.00
2023-04-11T03:51:15.443Z,0.00
2023-04-11T03:52:15.425Z,0.00
2023-04-11T03:53:15.422Z,0.00
2023-04-11T03:54:15.404Z,0.00
2023-04-11T03:55:15.390Z,0.00
2023-04-11T03:56:15.381Z,0.00
2023-04-11T03:57:15.364Z,0.00
2023-04-11T03:58:15.376Z,0.00
2023-04-11T03:59:15.345Z,0.00
2023-04-11T04:00:15.340Z,0.00
2023-04-11T04:01:15.334Z,0.00
2023-04-11T04:02:15.391Z,0.00
2023-04-11T04:03:15.489Z,0.00
2023-04-11T04:04:15.410Z,0.00
2023-04-11T04:05:15.278Z,0.00
2023-04-11T04:06:15.287Z,0.00
2023-04-11T04:07:15.271Z,0.00
2023-04-11T04:08:15.249Z,0.00
2023-04-11T04:09:15.233Z,0.00
2023-04-11T04:10:15.229Z,0.00
2023-04-11T04:11:15.224Z,0.00
2023-04-11T04:12:15.221Z,0.00
2023-04-11T04:13:15.200Z,0.00
2023-04-11T04:14:15.186Z,0.00
2023-04-11T04:15:15.188Z,0.00
2023-04-11T04:16:15.182Z,0.00
2023-04-11T04:17:15.149Z,0.00
2023-04-11T04:18:15.139Z,0.00
2023-04-11T04:19:15.453Z,0.00
2023-04-11T04:20:15.356Z,0.00
2023-04-11T04:21:15.339Z,0.00
2023-04-11T04:22:15.113Z,0.00
2023-04-11T04:23:15.090Z,0.00
2023-04-11T04:24:15.092Z,4.00
2023-04-11T04:25:15.073Z,4.00
2023-04-11T04:26:15.077Z,8.00
2023-04-11T04:27:15.174Z,4.00
2023-04-11T04:28:15.036Z,8.00
2023-04-11T04:29:15.038Z,8.00
2023-04-11T04:30:15.015Z,12.00
2023-04-11T04:31:15.050Z,12.00
2023-04-11T04:32:14.995Z,12.00
2023-04-11T04:33:14.976Z,16.00
2023-04-11T04:34:14.985Z,16.00
2023-04-11T04:35:14.958Z,16.00
2023-04-11T04:36:14.950Z,20.00
2023-04-11T04:37:14.950Z,20.00
2023-04-11T04:38:14.997Z,20.00
2023-04-11T04:39:14.912Z,28.00
2023-04-11T04:40:14.920Z,32.00
2023-04-11T04:41:15.107Z,36.00
2023-04-11T04:42:14.892Z,32.00
2023-04-11T04:43:14.871Z,32.00
2023-04-11T04:44:15.222Z,28.00
2023-04-11T04:45:14.878Z,24.00
2023-04-11T04:46:14.977Z,24.00
2023-04-11T04:47:14.858Z,24.00
2023-04-11T04:48:14.863Z,24.00
2023-04-11T04:49:14.808Z,24.00
2023-04-11T04:50:14.813Z,20.00
2023-04-11T04:51:14.789Z,24.00
2023-04-11T04:52:14.821Z,24.00
2023-04-11T04:53:14.933Z,28.00
2023-04-11T04:54:14.834Z,28.00
2023-04-11T04:55:15.469Z,32.00
2023-04-11T04:56:14.757Z,36.00
2023-04-11T04:57:14.721Z,36.00
2023-04-11T04:58:15.438Z,44.00
2023-04-11T04:59:14.724Z,48.00
2023-04-11T05:00:14.710Z,52.00
2023-04-11T05:01:14.690Z,60.00
2023-04-11T05:02:14.737Z,60.00
2023-04-11T05:03:14.811Z,56.00
2023-04-11T05:04:14.705Z,60.00
2023-04-11T05:05:14.659Z,60.00
2023-04-11T05:06:14.634Z,56.00
2023-04-11T05:07:14.630Z,56.00
2023-04-11T05:08:14.613Z,56.00
2023-04-11T05:09:14.644Z,60.00
2023-04-11T05:10:14.590Z,68.00
2023-04-11T05:11:14.593Z,68.00
2023-04-11T05:12:14.577Z,72.00
2023-04-11T05:13:14.555Z,84.00
2023-04-11T05:14:14.581Z,84.00
2023-04-11T05:15:14.539Z,76.00
2023-04-11T05:16:15.273Z,72.00
2023-04-11T05:17:15.397Z,76.00
2023-04-11T05:18:15.290Z,84.00
2023-04-11T05:19:14.558Z,96.00
2023-04-11T05:20:14.572Z,112.00
2023-04-11T05:21:14.515Z,120.00
2023-04-11T05:22:15.193Z,136.00
2023-04-11T05:23:14.529Z,164.00
2023-04-11T05:24:15.172Z,180.00
2023-04-11T05:25:14.458Z,192.00
2023-04-11T05:26:14.598Z,200.00
2023-04-11T05:27:14.427Z,212.00
2023-04-11T05:28:14.436Z,228.00
2023-04-11T05:29:14.409Z,232.00
2023-04-11T05:30:14.419Z,232.00
2023-04-11T05:31:14.419Z,224.00
2023-04-11T05:32:14.418Z,224.00
2023-04-11T05:33:14.346Z,224.00
2023-04-11T05:34:14.325Z,208.00
2023-04-11T05:35:14.324Z,200.00
2023-04-11T05:36:14.484Z,176.00
2023-04-11T05:37:14.320Z,184.00
2023-04-11T05:38:14.290Z,172.00
2023-04-11T05:39:14.297Z,168.00
2023-04-11T05:40:14.280Z,176.00
2023-04-11T05:41:14.268Z,180.00
2023-04-11T05:42:14.249Z,172.00
2023-04-11T05:43:14.263Z,172.00
2023-04-11T05:44:14.226Z,176.00
2023-04-11T05:45:14.234Z,188.00
2023-04-11T05:46:14.260Z,240.00
2023-04-11T05:47:14.202Z,316.00
2023-04-11T05:48:15.925Z,516.00
2023-04-11T05:49:14.181Z,664.00
2023-04-11T05:50:15.047Z,524.00
2023-04-11T05:51:14.205Z,416.00
2023-04-11T05:52:14.150Z,348.00
2023-04-11T05:53:14.139Z,324.00
2023-04-11T05:54:14.126Z,336.00
2023-04-11T05:55:15.163Z,372.00
2023-04-11T05:56:14.099Z,388.00
2023-04-11T05:57:15.085Z,360.00
2023-04-11T05:58:14.113Z,320.00
2023-04-11T05:59:15.075Z,336.00
2023-04-11T06:00:14.095Z,476.00
2023-04-11T06:01:15.167Z,528.00
2023-04-11T06:02:14.139Z,448.00
2023-04-11T06:03:14.295Z,396.00
2023-04-11T06:04:14.160Z,476.00
2023-04-11T06:05:15.043Z,596.00
2023-04-11T06:06:14.030Z,656.00
2023-04-11T06:07:15.022Z,572.00
2023-04-11T06:08:14.033Z,392.00
2023-04-11T06:09:14.364Z,328.00
2023-04-11T06:10:13.990Z,408.00
2023-04-11T06:11:14.306Z,544.00
2023-04-11T06:12:13.951Z,660.00
2023-04-11T06:13:13.969Z,608.00
2023-04-11T06:14:13.938Z,540.00
2023-04-11T06:15:14.045Z,536.00
2023-04-11T06:16:13.918Z,460.00
2023-04-11T06:17:14.510Z,556.00
2023-04-11T06:18:13.890Z,608.00
2023-04-11T06:19:14.556Z,660.00
2023-04-11T06:20:13.862Z,696.00
2023-04-11T06:21:13.913Z,856.00
2023-04-11T06:22:13.841Z,1036.00
2023-04-11T06:23:13.865Z,1020.00
2023-04-11T06:24:13.813Z,1044.00
2023-04-11T06:25:13.853Z,1096.00
2023-04-11T06:26:13.840Z,1344.00
2023-04-11T06:27:13.806Z,1440.00
2023-04-11T06:28:13.758Z,1248.00
2023-04-11T06:29:14.446Z,1200.00
2023-04-11T06:30:13.749Z,1436.00
2023-04-11T06:31:13.817Z,1636.00
2023-04-11T06:32:13.745Z,1648.00
2023-04-11T06:33:14.446Z,1340.00
2023-04-11T06:34:13.761Z,1340.00
2023-04-11T06:35:13.745Z,1404.00
2023-04-11T06:36:13.762Z,1452.00
2023-04-11T06:37:13.732Z,1348.00
2023-04-11T06:38:13.689Z,1340.00
2023-04-11T06:39:13.692Z,1388.00
2023-04-11T06:40:13.738Z,1444.00
2023-04-11T06:41:15.109Z,1456.00
2023-04-11T06:42:13.632Z,1544.00
2023-04-11T06:43:14.329Z,1696.00
2023-04-11T06:44:13.633Z,1764.00
2023-04-11T06:45:13.704Z,1744.00
2023-04-11T06:46:13.677Z,1476.00
2023-04-11T06:47:13.723Z,1360.00
2023-04-11T06:48:13.572Z,1416.00
2023-04-11T06:49:14.269Z,1528.00
2023-04-11T06:50:13.544Z,1632.00
2023-04-11T06:51:13.555Z,1644.00
2023-04-11T06:52:13.558Z,1720.00
2023-04-11T06:53:14.225Z,1808.00
2023-04-11T06:54:13.494Z,1552.00
2023-04-11T06:55:13.503Z,1488.00
2023-04-11T06:56:13.495Z,1620.00
2023-04-11T06:57:13.464Z,1736.00
2023-04-11T06:58:13.459Z,1672.00
2023-04-11T06:59:13.440Z,1368.00
2023-04-11T07:00:13.452Z,1428.00
2023-04-11T07:01:13.419Z,2028.00
2023-04-11T07:02:13.470Z,2296.00
2023-04-11T07:03:13.513Z,2400.00
2023-04-11T07:04:13.604Z,2420.00
2023-04-11T07:05:13.653Z,2524.00
2023-04-11T07:06:13.681Z,2652.00
2023-04-11T07:07:13.353Z,2676.00
2023-04-11T07:08:13.664Z,2620.00
2023-04-11T07:09:13.486Z,2288.00
2023-04-11T07:10:14.629Z,2196.00
2023-04-11T07:11:13.688Z,2176.00
2023-04-11T07:12:13.293Z,1956.00
2023-04-11T07:13:13.692Z,1480.00
2023-04-11T07:14:14.000Z,1508.00
2023-04-11T07:15:13.338Z,1632.00
2023-04-11T07:16:14.007Z,1112.00
2023-04-11T07:17:13.381Z,1360.00
2023-04-11T07:18:13.643Z,1324.00
2023-04-11T07:19:13.950Z,1240.00
2023-04-11T07:20:14.009Z,1852.00
2023-04-11T07:21:13.573Z,2176.00
2023-04-11T07:22:13.355Z,2360.00
2023-04-11T07:23:13.195Z,2504.00
2023-04-11T07:24:14.192Z,2636.00
2023-04-11T07:25:13.503Z,2808.00
2023-04-11T07:26:13.484Z,2896.00
2023-04-11T07:27:13.605Z,2956.00
2023-04-11T07:28:13.844Z,3084.00
2023-04-11T07:29:14.956Z,3244.00
2023-04-11T07:30:13.455Z,3348.00
2023-04-11T07:31:13.121Z,3612.00
2023-04-11T07:32:13.100Z,3724.00
2023-04-11T07:33:13.071Z,3528.00
2023-04-11T07:34:13.071Z,3264.00
2023-04-11T07:35:13.095Z,3132.00
2023-04-11T07:36:13.082Z,3508.00
2023-04-11T07:37:13.115Z,3728.00
2023-04-11T07:38:13.012Z,3688.00
2023-04-11T07:39:13.021Z,3488.00
2023-04-11T07:40:12.995Z,3616.00
2023-04-11T07:41:13.004Z,3520.00
2023-04-11T07:42:12.975Z,3472.00
2023-04-11T07:43:12.976Z,3460.00
2023-04-11T07:44:12.952Z,3588.00
2023-04-11T07:45:13.472Z,3508.00
2023-04-11T07:46:13.260Z,3500.00
2023-04-11T07:47:12.985Z,3400.00
2023-04-11T07:48:13.916Z,3252.00
2023-04-11T07:49:12.944Z,3312.00
2023-04-11T07:50:13.586Z,3240.00
2023-04-11T07:51:12.885Z,3280.00
2023-04-11T07:52:14.312Z,3432.00
2023-04-11T07:53:12.867Z,3380.00
2023-04-11T07:54:12.862Z,2748.00
2023-04-11T07:55:12.839Z,2728.00
2023-04-11T07:56:12.845Z,2788.00
2023-04-11T07:57:12.812Z,3024.00
2023-04-11T07:58:12.799Z,3192.00
2023-04-11T07:59:12.794Z,3260.00
2023-04-11T08:00:12.780Z,2972.00
2023-04-11T08:01:12.773Z,2980.00
2023-04-11T08:02:12.819Z,3372.00
2023-04-11T08:03:12.992Z,3720.00
2023-04-11T08:04:12.886Z,4068.00
2023-04-11T08:05:12.805Z,4140.00
2023-04-11T08:06:12.716Z,3940.00
2023-04-11T08:07:12.844Z,4156.00
2023-04-11T08:08:12.857Z,4240.00
2023-04-11T08:09:12.692Z,4400.00
2023-04-11T08:10:12.688Z,4268.00
2023-04-11T08:11:12.679Z,4080.00
2023-04-11T08:12:12.675Z,3976.00
2023-04-11T08:13:12.659Z,4212.00
2023-04-11T08:14:12.642Z,4068.00
2023-04-11T08:15:12.636Z,3964.00
2023-04-11T08:16:12.646Z,4380.00
2023-04-11T08:17:25.114Z,4400.00
2023-04-11T08:18:13.605Z,4192.00
2023-04-11T08:19:12.620Z,4232.00
2023-04-11T08:20:12.564Z,4512.00
2023-04-11T08:21:12.585Z,4660.00
2023-04-11T08:22:12.558Z,4820.00
2023-04-11T08:23:12.541Z,4560.00
2023-04-11T08:24:12.533Z,4556.00
2023-04-11T08:25:12.518Z,4480.00
2023-04-11T08:26:12.507Z,4444.00
2023-04-11T08:27:12.723Z,4324.00
2023-04-11T08:28:12.485Z,4296.00
2023-04-11T08:29:13.213Z,4360.00
2023-04-11T08:30:12.477Z,4304.00
2023-04-11T08:31:13.776Z,4088.00
2023-04-11T08:32:12.467Z,4120.00
2023-04-11T08:33:13.164Z,3884.00
2023-04-11T08:34:12.454Z,3892.00
2023-04-11T08:35:13.145Z,3872.00
2023-04-11T08:36:12.477Z,3852.00
2023-04-11T08:37:13.530Z,4276.00
2023-04-11T08:38:12.397Z,4196.00
2023-04-11T08:39:13.157Z,4148.00
2023-04-11T08:40:12.382Z,3948.00
2023-04-11T08:41:12.427Z,4120.00
2023-04-11T08:42:12.353Z,4164.00
2023-04-11T08:43:13.041Z,4376.00
2023-04-11T08:44:12.510Z,4288.00
2023-04-11T08:45:12.383Z,4612.00
2023-04-11T08:46:12.322Z,4224.00
2023-04-11T08:47:12.295Z,4464.00
2023-04-11T08:48:12.674Z,4648.00
2023-04-11T08:49:12.265Z,4508.00
2023-04-11T08:50:12.338Z,4820.00
2023-04-11T08:51:12.245Z,4852.00
2023-04-11T08:52:12.240Z,4580.00
2023-04-11T08:53:12.402Z,4620.00
2023-04-11T08:54:12.252Z,4564.00
2023-04-11T08:55:12.277Z,4660.00
2023-04-11T08:56:12.262Z,4444.00
2023-04-11T08:57:12.173Z,4156.00
2023-04-11T08:58:12.332Z,4004.00
2023-04-11T08:59:12.155Z,3796.00
2023-04-11T09:00:12.151Z,3916.00
2023-04-11T09:01:12.144Z,4112.00
2023-04-11T09:02:12.317Z,4352.00
2023-04-11T09:03:12.305Z,4444.00
2023-04-11T09:04:12.099Z,4472.00
2023-04-11T09:05:12.402Z,4548.00
2023-04-11T09:06:12.529Z,4460.00
2023-04-11T09:07:12.370Z,4276.00
2023-04-11T09:08:12.329Z,4360.00
2023-04-11T09:09:12.074Z,4664.00
2023-04-11T09:10:12.108Z,4812.00
2023-04-11T09:11:12.034Z,4712.00
2023-04-11T09:12:12.896Z,4396.00
2023-04-11T09:13:12.005Z,3952.00
2023-04-11T09:14:11.998Z,3752.00
2023-04-11T09:15:11.978Z,3860.00
2023-04-11T09:16:12.233Z,4484.00
2023-04-11T09:17:11.957Z,5180.00
2023-04-11T09:18:12.032Z,4680.00
2023-04-11T09:19:11.939Z,3504.00
2023-04-11T09:20:12.187Z,5476.00
2023-04-11T09:21:11.910Z,4344.00
2023-04-11T09:22:11.960Z,4660.00
2023-04-11T09:23:11.920Z,4456.00
2023-04-11T09:24:12.012Z,4412.00
2023-04-11T09:25:11.872Z,3936.00
2023-04-11T09:26:11.913Z,4408.00
2023-04-11T09:27:11.889Z,4604.00
2023-04-11T09:28:11.888Z,4592.00
2023-04-11T09:29:11.842Z,4764.00
2023-04-11T09:30:11.965Z,4812.00
2023-04-11T09:31:11.850Z,4108.00
2023-04-11T09:32:11.827Z,3672.00
2023-04-11T09:33:11.784Z,3412.00
2023-04-11T09:34:11.791Z,3832.00
2023-04-11T09:35:11.768Z,4492.00
2023-04-11T09:36:11.837Z,5048.00
2023-04-11T09:37:11.739Z,4972.00
2023-04-11T09:38:11.733Z,4220.00
2023-04-11T09:39:11.737Z,3668.00
2023-04-11T09:40:11.718Z,3412.00
2023-04-11T09:41:11.706Z,2952.00
2023-04-11T09:42:11.693Z,3328.00
2023-04-11T09:43:11.711Z,3464.00
2023-04-11T09:44:11.673Z,4324.00
2023-04-11T09:45:11.669Z,5792.00
2023-04-11T09:46:11.665Z,5952.00
2023-04-11T09:47:11.648Z,4212.00
2023-04-11T09:48:11.664Z,3772.00
2023-04-11T09:49:12.105Z,4056.00
2023-04-11T09:50:11.629Z,4184.00
2023-04-11T09:51:15.835Z,4332.00
2023-04-11T09:52:12.626Z,4536.00
2023-04-11T09:53:11.572Z,4108.00
2023-04-11T09:54:11.565Z,4256.00
2023-04-11T09:55:11.548Z,3940.00
2023-04-11T09:56:11.582Z,4360.00
2023-04-11T09:57:11.527Z,5308.00
2023-04-11T09:58:11.561Z,5776.00
2023-04-11T09:59:11.520Z,5976.00
2023-04-11T10:00:11.505Z,6220.00
2023-04-11T10:01:11.489Z,5404.00
2023-04-11T10:02:11.571Z,4736.00
2023-04-11T10:03:11.583Z,4300.00
2023-04-11T10:04:11.534Z,6528.00
2023-04-11T10:05:11.441Z,6684.00
2023-04-11T10:06:11.448Z,6076.00
2023-04-11T10:07:11.419Z,5160.00
2023-04-11T10:08:11.435Z,5344.00
2023-04-11T10:09:11.642Z,5856.00
2023-04-11T10:10:11.406Z,6484.00
2023-04-11T10:11:11.386Z,7040.00
2023-04-11T10:12:11.369Z,6732.00
2023-04-11T10:13:11.353Z,6080.00
2023-04-11T10:14:11.356Z,6072.00
2023-04-11T10:15:11.366Z,4432.00
2023-04-11T10:16:11.380Z,4208.00
2023-04-11T10:17:11.316Z,4760.00
2023-04-11T10:18:11.440Z,5084.00
2023-04-11T10:19:11.303Z,4384.00
2023-04-11T10:20:11.284Z,3768.00
2023-04-11T10:21:11.286Z,4308.00
2023-04-11T10:22:11.307Z,5000.00
2023-04-11T10:23:11.254Z,4536.00
2023-04-11T10:24:12.275Z,4424.00
2023-04-11T10:25:11.245Z,4100.00
2023-04-11T10:26:11.222Z,4856.00
2023-04-11T10:27:11.205Z,3544.00
2023-04-11T10:28:11.202Z,4056.00
2023-04-11T10:29:11.184Z,4196.00
2023-04-11T10:30:11.177Z,4256.00
2023-04-11T10:31:11.198Z,3232.00
2023-04-11T10:32:11.156Z,3868.00
2023-04-11T10:33:11.171Z,6404.00
2023-04-11T10:34:11.134Z,6200.00
2023-04-11T10:35:11.122Z,7100.00
2023-04-11T10:36:11.305Z,6952.00
2023-04-11T10:37:11.106Z,6820.00
2023-04-11T10:38:11.121Z,6668.00
2023-04-11T10:39:11.077Z,6820.00
2023-04-11T10:40:11.080Z,6772.00
2023-04-11T10:41:11.055Z,6876.00
2023-04-11T10:42:11.054Z,6696.00
2023-04-11T10:43:11.050Z,6144.00
2023-04-11T10:44:11.029Z,5700.00
2023-04-11T10:45:11.017Z,5064.00
2023-04-11T10:46:11.011Z,5316.00
2023-04-11T10:47:11.104Z,6280.00
2023-04-11T10:48:10.989Z,6808.00
2023-04-11T10:49:10.972Z,6832.00
2023-04-11T10:50:10.970Z,6824.00
2023-04-11T10:51:10.953Z,6980.00
2023-04-11T10:52:10.950Z,6736.00
2023-04-11T10:53:10.931Z,6772.00
2023-04-11T10:54:10.939Z,6800.00
2023-04-11T10:55:10.908Z,7144.00
2023-04-11T10:56:10.904Z,7692.00
2023-04-11T10:57:10.888Z,7708.00
2023-04-11T10:58:10.887Z,7512.00
2023-04-11T10:59:10.878Z,7672.00
2023-04-11T11:00:10.884Z,7904.00
2023-04-11T11:01:21.102Z,7460.00
2023-04-11T11:02:11.891Z,7156.00
2023-04-11T11:03:10.948Z,7284.00
2023-04-11T11:04:11.174Z,7132.00
2023-04-11T11:05:10.838Z,6532.00
2023-04-11T11:06:10.790Z,6732.00
2023-04-11T11:07:10.785Z,7196.00
2023-04-11T11:08:10.772Z,7304.00
2023-04-11T11:09:10.770Z,6968.00
2023-04-11T11:10:10.749Z,6688.00
2023-04-11T11:11:10.751Z,6564.00
2023-04-11T11:12:10.723Z,6440.00
2023-04-11T11:13:10.716Z,6020.00
2023-04-11T11:14:10.721Z,6092.00
2023-04-11T11:15:10.697Z,6436.00
2023-04-11T11:16:10.712Z,6544.00
2023-04-11T11:17:10.666Z,6692.00
2023-04-11T11:18:10.678Z,6884.00
2023-04-11T11:19:10.672Z,6784.00
2023-04-11T11:20:10.649Z,6308.00
2023-04-11T11:21:14.047Z,5964.00
2023-04-11T11:22:11.633Z,6264.00
2023-04-11T11:23:10.603Z,6480.00
2023-04-11T11:24:10.598Z,6448.00
2023-04-11T11:25:10.595Z,6976.00
2023-04-11T11:26:10.579Z,6512.00
2023-04-11T11:27:10.561Z,6964.00
2023-04-11T11:28:10.559Z,6800.00
2023-04-11T11:29:10.536Z,6964.00
2023-04-11T11:30:10.536Z,8564.00
2023-04-11T11:31:10.514Z,7736.00
2023-04-11T11:32:10.578Z,8920.00
2023-04-11T11:33:10.511Z,6948.00
2023-04-11T11:35:10.480Z,8044.00
2023-04-11T11:36:10.470Z,7520.00
2023-04-11T11:37:10.458Z,6180.00
2023-04-11T11:38:10.456Z,6644.00
2023-04-11T11:39:10.435Z,6904.00
2023-04-11T11:40:10.446Z,7640.00
2023-04-11T11:41:10.407Z,7856.00
2023-04-11T11:42:10.398Z,8244.00
2023-04-11T11:43:10.383Z,6632.00
2023-04-11T11:44:10.384Z,7072.00
2023-04-11T11:45:10.402Z,7512.00
2023-04-11T11:46:10.425Z,6000.00
2023-04-11T11:47:10.373Z,6600.00
2023-04-11T11:48:10.342Z,6756.00
2023-04-11T11:49:10.340Z,7972.00
2023-04-11T11:50:10.323Z,6540.00
2023-04-11T11:51:10.308Z,8956.00
2023-04-11T11:52:10.315Z,7352.00
2023-04-11T11:53:10.335Z,9544.00
2023-04-11T11:54:10.285Z,8644.00
2023-04-11T11:55:11.429Z,8952.00
2023-04-11T11:56:10.283Z,8704.00
2023-04-11T11:57:10.297Z,9468.00
2023-04-11T11:58:10.256Z,9004.00
2023-04-11T11:59:10.255Z,9092.00
2023-04-11T12:00:10.242Z,7472.00
2023-04-11T12:01:10.205Z,6464.00
2023-04-11T12:02:10.260Z,6400.00
2023-04-11T12:03:10.392Z,5636.00
2023-04-11T12:04:10.290Z,6236.00
2023-04-11T12:05:10.237Z,5236.00
2023-04-11T12:06:10.168Z,4792.00
2023-04-11T12:07:10.143Z,6776.00
2023-04-11T12:08:10.130Z,9328.00
2023-04-11T12:09:10.111Z,9760.00
2023-04-11T12:10:10.116Z,12616.00
2023-04-11T12:11:10.109Z,7380.00
2023-04-11T12:12:10.089Z,7092.00
2023-04-11T12:13:10.078Z,6908.00
2023-04-11T12:14:10.073Z,8016.00
2023-04-11T12:15:10.063Z,10840.00
2023-04-11T12:16:10.109Z,11100.00
2023-04-11T12:17:10.060Z,6780.00
2023-04-11T12:18:10.071Z,7904.00
2023-04-11T12:19:10.017Z,7672.00
2023-04-11T12:20:10.025Z,7524.00
2023-04-11T12:21:09.993Z,8396.00
2023-04-11T12:22:10.006Z,9024.00
2023-04-11T12:23:09.960Z,9576.00
2023-04-11T12:24:09.970Z,8772.00
2023-04-11T12:25:09.957Z,10304.00
2023-04-11T12:26:09.937Z,8396.00
2023-04-11T12:27:10.770Z,11040.00
2023-04-11T12:28:09.959Z,10360.00
2023-04-11T12:29:09.902Z,12056.00
2023-04-11T12:30:09.898Z,10396.00
2023-04-11T12:31:09.924Z,8344.00
2023-04-11T12:32:09.871Z,8712.00
2023-04-11T12:33:09.867Z,5980.00
2023-04-11T12:34:09.862Z,7324.00
2023-04-11T12:35:09.885Z,6908.00
2023-04-11T12:36:09.827Z,5668.00